Vale, Oregon
Current Conditions -  °F | °C
As of 4:53 PM on Monday 20 Oct 2014 (Local Time) from KONO Reporting Station
Clear Clear  
Wind Chill: 76°   Ceiling: Unl
Heat Index: 76°   Visibility: 10mi
Dew Point: 38°   Wind: 6mph
Humidity: 25%   Direction: 350°N
Pressure: 29.75"   Gusts: NA
Location:  43.98°N, 117.24°W
Report Text: KONO 202253Z AUTO 35005KT 10SM CLR 24/03 A2975 RMK AO2 SLP070 T02440033
Loading
Personal Weather Stations






























Interactive Weather Map
Tropical Storm Tracking
New forecast layout! Learn more

10-Day Weather Forecast

Advertisements
Track Severe Weather on mobile